Time;durP1;ratioP1;P1;durP2;ratioP2;P2;SDS_P1;SDS_P2;PMS_P1;PMS_P2;Temp;Humidity;BMP_temperature;BMP_pressure;BME280_temperature;BME280_humidity;BME280_pressure;Samples;Min_cycle;Max_cycle;Signal;HPM_P1;HPM_P2
2022/10/16 00:00:40;;;;;;;9.35;1.70;;;;;;;;;;4967310;28;20516;-68
2022/10/16 00:03:07;;;;;;;5.30;1.10;;;;;;;;;;4965203;28;20057;-69
2022/10/16 00:05:39;;;;;;;6.93;1.33;;;;;;;;;;4955264;28;20055;-67
2022/10/16 00:08:07;;;;;;;7.57;1.38;;;;;;;;;;4964861;28;20062;-67
2022/10/16 00:10:34;;;;;;;8.82;1.98;;;;;;;;;;4967439;28;20110;-67
2022/10/16 00:13:01;;;;;;;8.88;1.52;;;;;;;;;;4967471;28;20061;-69
2022/10/16 00:15:29;;;;;;;7.10;1.50;;;;;;;;;;4948866;28;20066;-68
2022/10/16 00:17:56;;;;;;;11.70;1.98;;;;;;;;;;4966788;28;20062;-69
2022/10/16 00:20:23;;;;;;;14.52;1.58;;;;;;;;;;4963510;28;20058;-67
2022/10/16 00:22:52;;;;;;;12.73;1.83;;;;;;;;;;4962914;28;20057;-68
2022/10/16 00:25:19;;;;;;;10.27;1.80;;;;;;;;;;4967985;28;20217;-68
2022/10/16 00:27:46;;;;;;;10.65;1.52;;;;;;;;;;4950129;28;20410;-69
2022/10/16 00:30:14;;;;;;;10.75;1.50;;;;;;;;;;4958861;28;20755;-68
2022/10/16 00:32:41;;;;;;;9.77;1.80;;;;;;;;;;4961338;28;20051;-68
2022/10/16 00:35:08;;;;;;;9.75;1.52;;;;;;;;;;4967121;28;20051;-69
2022/10/16 00:37:35;;;;;;;6.20;1.40;;;;;;;;;;4964552;28;20059;-68
2022/10/16 00:40:04;;;;;;;10.48;1.60;;;;;;;;;;4965570;28;20519;-68
2022/10/16 00:42:31;;;;;;;10.85;1.58;;;;;;;;;;4965791;28;20062;-69
2022/10/16 00:44:59;;;;;;;9.73;1.65;;;;;;;;;;4964056;28;20063;-67
2022/10/16 00:47:28;;;;;;;13.68;1.80;;;;;;;;;;4967609;28;20055;-67
2022/10/16 00:50:00;;;;;;;10.45;1.50;;;;;;;;;;4961667;28;20058;-69
2022/10/16 00:52:28;;;;;;;8.10;1.52;;;;;;;;;;4963867;28;20498;-67
2022/10/16 00:54:56;;;;;;;6.63;1.42;;;;;;;;;;4948757;28;20059;-67
2022/10/16 00:57:24;;;;;;;6.35;1.20;;;;;;;;;;4966879;28;20513;-67
2022/10/16 00:59:52;;;;;;;8.98;1.70;;;;;;;;;;4965319;28;20047;-69
2022/10/16 01:02:19;;;;;;;7.22;1.30;;;;;;;;;;4946742;28;20066;-67
2022/10/16 01:04:48;;;;;;;8.35;1.48;;;;;;;;;;4960867;28;20065;-68
2022/10/16 01:07:23;;;;;;;8.77;2.20;;;;;;;;;;4949785;28;20516;-67
2022/10/16 01:09:57;;;;;;;7.07;1.00;;;;;;;;;;4966032;28;20053;-70
2022/10/16 01:12:31;;;;;;;6.95;1.80;;;;;;;;;;4962649;28;20047;-68
2022/10/16 01:15:00;;;;;;;7.65;1.40;;;;;;;;;;4964668;28;20055;-68
2022/10/16 01:17:30;;;;;;;7.00;1.50;;;;;;;;;;4966309;28;20349;-67
2022/10/16 01:20:15;;;;;;;7.00;1.25;;;;;;;;;;4962149;28;20051;-67
2022/10/16 01:22:49;;;;;;;4.13;0.88;;;;;;;;;;4964401;28;20046;-68
2022/10/16 01:25:20;;;;;;;5.43;1.10;;;;;;;;;;4965277;28;20081;-68
2022/10/16 01:27:49;;;;;;;5.95;1.40;;;;;;;;;;4965782;28;20354;-69
2022/10/16 01:30:18;;;;;;;4.72;1.20;;;;;;;;;;4946170;28;20517;-68
2022/10/16 01:32:48;;;;;;;11.48;1.40;;;;;;;;;;4966332;28;20493;-69
2022/10/16 01:35:21;;;;;;;8.32;1.40;;;;;;;;;;4965998;28;20059;-69
2022/10/16 01:37:50;;;;;;;9.68;1.25;;;;;;;;;;4964108;28;20066;-69
2022/10/16 01:40:19;;;;;;;9.25;1.85;;;;;;;;;;4963473;28;20055;-68
2022/10/16 01:42:48;;;;;;;9.15;1.20;;;;;;;;;;4961330;28;20822;-69
2022/10/16 01:45:17;;;;;;;6.72;1.23;;;;;;;;;;4947521;28;20767;-68
2022/10/16 01:47:45;;;;;;;5.78;1.10;;;;;;;;;;4965140;28;20051;-68
2022/10/16 01:50:13;;;;;;;5.57;1.05;;;;;;;;;;4956117;28;20039;-70
2022/10/16 01:52:43;;;;;;;4.07;0.95;;;;;;;;;;4964858;28;20057;-68
2022/10/16 01:55:12;;;;;;;8.88;1.63;;;;;;;;;;4957059;28;20054;-70
2022/10/16 01:57:41;;;;;;;8.85;1.17;;;;;;;;;;4961296;28;20047;-68
2022/10/16 02:00:10;;;;;;;4.57;0.90;;;;;;;;;;4960758;28;20410;-70
2022/10/16 02:02:40;;;;;;;3.42;0.85;;;;;;;;;;4965695;28;20058;-68
2022/10/16 02:05:12;;;;;;;5.88;0.90;;;;;;;;;;4960672;28;20054;-68
2022/10/16 02:07:41;;;;;;;7.78;1.45;;;;;;;;;;4962567;28;20077;-70
2022/10/16 02:10:08;;;;;;;9.27;1.30;;;;;;;;;;4965811;28;20043;-69
2022/10/16 02:12:36;;;;;;;7.72;1.40;;;;;;;;;;4965481;28;20179;-68
2022/10/16 02:15:04;;;;;;;11.50;1.40;;;;;;;;;;4966330;28;20055;-69
2022/10/16 02:17:31;;;;;;;6.55;1.45;;;;;;;;;;4967280;28;20055;-69
2022/10/16 02:20:00;;;;;;;14.32;1.83;;;;;;;;;;4964598;28;20469;-69
2022/10/16 02:22:29;;;;;;;6.35;1.67;;;;;;;;;;4969864;28;20161;-71
2022/10/16 02:24:58;;;;;;;8.73;1.80;;;;;;;;;;4965371;28;20428;-69
2022/10/16 02:27:28;;;;;;;5.57;1.50;;;;;;;;;;4966028;28;20058;-70
2022/10/16 02:29:58;;;;;;;5.65;1.27;;;;;;;;;;4963245;28;20509;-69
2022/10/16 02:32:27;;;;;;;10.80;1.20;;;;;;;;;;4970375;28;20120;-69
2022/10/16 02:34:54;;;;;;;10.80;1.48;;;;;;;;;;4967441;28;20055;-69
2022/10/16 02:37:23;;;;;;;6.80;1.73;;;;;;;;;;4964677;28;20058;-70
2022/10/16 02:39:50;;;;;;;9.77;2.42;;;;;;;;;;4968059;28;20058;-69
2022/10/16 02:42:19;;;;;;;16.13;2.35;;;;;;;;;;4969201;28;20047;-71
2022/10/16 02:44:46;;;;;;;8.35;2.72;;;;;;;;;;4943294;28;20046;-70
2022/10/16 02:47:14;;;;;;;11.68;3.15;;;;;;;;;;4962359;28;20054;-70
2022/10/16 02:49:41;;;;;;;10.80;2.88;;;;;;;;;;4969637;28;20050;-71
2022/10/16 02:52:08;;;;;;;13.38;3.63;;;;;;;;;;4968858;28;20042;-70
2022/10/16 02:54:36;;;;;;;5.75;2.55;;;;;;;;;;4969359;28;20371;-71
2022/10/16 02:57:04;;;;;;;16.83;2.78;;;;;;;;;;4968777;28;20049;-71
2022/10/16 02:59:31;;;;;;;10.00;2.63;;;;;;;;;;4965025;28;20146;-70
2022/10/16 03:01:58;;;;;;;4.95;1.73;;;;;;;;;;4959795;28;20062;-71
2022/10/16 03:04:25;;;;;;;6.60;2.00;;;;;;;;;;4968478;28;20062;-71
2022/10/16 03:06:53;;;;;;;6.82;2.00;;;;;;;;;;4960091;28;20066;-71
2022/10/16 03:09:20;;;;;;;6.90;2.10;;;;;;;;;;4944677;28;20048;-71
2022/10/16 03:11:48;;;;;;;9.40;2.35;;;;;;;;;;4946733;28;20047;-71
2022/10/16 03:14:16;;;;;;;6.03;1.92;;;;;;;;;;4965597;28;20127;-70
2022/10/16 03:16:43;;;;;;;7.65;2.50;;;;;;;;;;4959200;28;20071;-70
2022/10/16 03:19:10;;;;;;;6.70;1.98;;;;;;;;;;4964358;28;20054;-71
2022/10/16 03:21:37;;;;;;;9.30;2.10;;;;;;;;;;4952153;28;20070;-70
2022/10/16 03:24:05;;;;;;;6.85;3.05;;;;;;;;;;4966984;28;20039;-70
2022/10/16 03:26:32;;;;;;;10.02;2.45;;;;;;;;;;4946311;28;20462;-71
2022/10/16 03:29:02;;;;;;;8.32;2.65;;;;;;;;;;4962419;28;20053;-71
2022/10/16 03:31:29;;;;;;;9.60;2.72;;;;;;;;;;4966723;28;20082;-71
2022/10/16 03:33:56;;;;;;;8.60;2.08;;;;;;;;;;4969028;28;20508;-69
2022/10/16 03:36:24;;;;;;;8.48;2.42;;;;;;;;;;4968149;28;20042;-70
2022/10/16 03:38:51;;;;;;;13.68;2.60;;;;;;;;;;4968260;28;20417;-68
2022/10/16 03:41:18;;;;;;;7.78;1.95;;;;;;;;;;4968778;28;20051;-68
2022/10/16 03:43:45;;;;;;;6.30;2.10;;;;;;;;;;4968544;28;20490;-69
2022/10/16 03:46:14;;;;;;;6.30;1.95;;;;;;;;;;4968729;28;20050;-70
2022/10/16 03:48:41;;;;;;;8.77;2.00;;;;;;;;;;4968626;28;20055;-70
2022/10/16 03:51:08;;;;;;;8.57;2.45;;;;;;;;;;4968244;28;20043;-70
2022/10/16 03:53:36;;;;;;;4.90;2.00;;;;;;;;;;4968374;28;20766;-71
2022/10/16 03:56:03;;;;;;;6.18;2.05;;;;;;;;;;4968747;28;20441;-70
2022/10/16 03:58:30;;;;;;;8.70;2.22;;;;;;;;;;4968836;28;20046;-71
2022/10/16 04:00:57;;;;;;;4.97;1.80;;;;;;;;;;4963028;28;20058;-71
2022/10/16 04:03:26;;;;;;;5.35;1.80;;;;;;;;;;4963623;28;20050;-71
2022/10/16 04:05:53;;;;;;;6.03;1.73;;;;;;;;;;4950676;28;20057;-69
2022/10/16 04:08:20;;;;;;;9.52;1.45;;;;;;;;;;4966103;28;20074;-71
2022/10/16 04:10:48;;;;;;;9.25;1.85;;;;;;;;;;4965435;28;20047;-71
2022/10/16 04:13:15;;;;;;;8.50;1.77;;;;;;;;;;4949438;28;20487;-70
2022/10/16 04:15:42;;;;;;;7.78;1.80;;;;;;;;;;4966042;28;21171;-71
2022/10/16 04:18:09;;;;;;;9.60;1.50;;;;;;;;;;4965727;28;20101;-70
2022/10/16 04:20:38;;;;;;;13.27;1.48;;;;;;;;;;4948080;28;20417;-72
2022/10/16 04:23:05;;;;;;;7.43;1.80;;;;;;;;;;4968244;28;20051;-70
2022/10/16 04:25:33;;;;;;;6.30;1.90;;;;;;;;;;4949670;28;20085;-71
2022/10/16 04:28:00;;;;;;;5.35;1.58;;;;;;;;;;4949677;28;20050;-70
2022/10/16 04:30:27;;;;;;;7.13;1.95;;;;;;;;;;4967151;28;20475;-70
2022/10/16 04:32:54;;;;;;;5.32;1.80;;;;;;;;;;4948409;28;20058;-71
2022/10/16 04:35:22;;;;;;;9.10;1.98;;;;;;;;;;4965554;28;20110;-71
2022/10/16 04:37:51;;;;;;;7.05;2.08;;;;;;;;;;4964312;28;20047;-71
2022/10/16 04:40:18;;;;;;;11.63;2.20;;;;;;;;;;4966514;28;20058;-71
2022/10/16 04:42:45;;;;;;;7.68;2.10;;;;;;;;;;4965092;28;20386;-70
2022/10/16 04:45:13;;;;;;;6.28;1.65;;;;;;;;;;4965794;28;20061;-71
2022/10/16 04:47:40;;;;;;;7.03;1.60;;;;;;;;;;4949098;28;20054;-70
2022/10/16 04:50:07;;;;;;;6.10;1.75;;;;;;;;;;4947453;28;20046;-70
2022/10/16 04:52:35;;;;;;;7.90;1.63;;;;;;;;;;4967610;28;20051;-73
2022/10/16 04:55:04;;;;;;;6.45;1.45;;;;;;;;;;4967851;28;20496;-71
2022/10/16 04:57:33;;;;;;;6.15;1.30;;;;;;;;;;4967588;28;20497;-71
2022/10/16 05:00:00;;;;;;;9.00;1.65;;;;;;;;;;4966781;28;20098;-73
2022/10/16 05:02:27;;;;;;;7.78;1.40;;;;;;;;;;4946867;28;20062;-70
2022/10/16 05:04:55;;;;;;;6.55;1.30;;;;;;;;;;4950522;28;20059;-70
2022/10/16 05:07:22;;;;;;;10.25;2.50;;;;;;;;;;4965791;28;20061;-72
2022/10/16 05:09:49;;;;;;;4.70;1.10;;;;;;;;;;4947642;28;20042;-70
2022/10/16 05:12:18;;;;;;;6.95;1.50;;;;;;;;;;4965903;28;20051;-71
2022/10/16 05:14:45;;;;;;;8.00;1.75;;;;;;;;;;4946822;28;20057;-70
2022/10/16 05:17:12;;;;;;;7.80;1.15;;;;;;;;;;4966363;28;20042;-71
2022/10/16 05:19:40;;;;;;;9.73;1.30;;;;;;;;;;4965604;28;20058;-71
2022/10/16 05:22:07;;;;;;;7.55;1.25;;;;;;;;;;4966747;28;20051;-71
2022/10/16 05:24:34;;;;;;;5.13;1.30;;;;;;;;;;4964665;28;20074;-71
2022/10/16 05:27:01;;;;;;;6.10;1.33;;;;;;;;;;4965741;28;20059;-70
2022/10/16 05:29:30;;;;;;;4.25;1.08;;;;;;;;;;4942550;28;20062;-70
2022/10/16 05:31:57;;;;;;;4.35;1.30;;;;;;;;;;4948695;28;20047;-72
2022/10/16 05:34:25;;;;;;;8.80;1.50;;;;;;;;;;4960556;28;20047;-71
2022/10/16 05:36:52;;;;;;;5.60;1.70;;;;;;;;;;4947988;28;20070;-71
2022/10/16 05:39:19;;;;;;;5.63;2.00;;;;;;;;;;4964687;28;20058;-70
2022/10/16 05:41:46;;;;;;;6.30;2.28;;;;;;;;;;4966578;28;20046;-70
2022/10/16 05:44:13;;;;;;;12.45;2.67;;;;;;;;;;4944205;28;20059;-71
2022/10/16 05:46:42;;;;;;;6.55;2.90;;;;;;;;;;4961476;28;20038;-71
2022/10/16 05:49:09;;;;;;;13.05;3.33;;;;;;;;;;4942435;28;20050;-71
2022/10/16 05:51:36;;;;;;;6.28;2.83;;;;;;;;;;4961151;28;20054;-72
2022/10/16 05:54:04;;;;;;;10.05;3.20;;;;;;;;;;4948416;28;20513;-71
2022/10/16 05:56:31;;;;;;;5.78;2.90;;;;;;;;;;4948391;28;20130;-71
2022/10/16 05:58:58;;;;;;;9.80;3.42;;;;;;;;;;4965274;28;20134;-72
2022/10/16 06:01:25;;;;;;;6.88;3.20;;;;;;;;;;4947739;28;20501;-71
2022/10/16 06:03:54;;;;;;;9.55;3.22;;;;;;;;;;4964670;28;20788;-71
2022/10/16 06:06:22;;;;;;;8.10;3.17;;;;;;;;;;4948678;28;20061;-70
2022/10/16 06:08:50;;;;;;;7.40;2.55;;;;;;;;;;4963108;28;20478;-71
2022/10/16 06:11:18;;;;;;;11.65;2.85;;;;;;;;;;4963799;28;20069;-71
2022/10/16 06:13:46;;;;;;;13.10;3.25;;;;;;;;;;4961915;28;20050;-71
2022/10/16 06:16:14;;;;;;;9.07;2.85;;;;;;;;;;4945329;28;20086;-71
2022/10/16 06:18:41;;;;;;;12.45;2.90;;;;;;;;;;4956588;28;20051;-71
2022/10/16 06:21:10;;;;;;;9.68;3.08;;;;;;;;;;4965037;28;20042;-72
2022/10/16 06:23:37;;;;;;;8.77;2.45;;;;;;;;;;4965284;28;20062;-71
2022/10/16 06:26:08;;;;;;;10.85;3.05;;;;;;;;;;4945211;28;20051;-71
2022/10/16 06:28:35;;;;;;;5.97;2.42;;;;;;;;;;4943034;28;20062;-71
2022/10/16 06:31:03;;;;;;;14.88;2.90;;;;;;;;;;4951669;28;20051;-72
2022/10/16 06:33:30;;;;;;;13.40;2.83;;;;;;;;;;4958513;28;20042;-70
2022/10/16 06:36:02;;;;;;;9.50;2.65;;;;;;;;;;4947855;28;20161;-71
2022/10/16 06:38:31;;;;;;;7.93;2.42;;;;;;;;;;4960704;28;20062;-71
2022/10/16 06:40:58;;;;;;;9.10;2.75;;;;;;;;;;4945954;28;20051;-71
2022/10/16 06:43:25;;;;;;;13.00;2.60;;;;;;;;;;4946838;28;20520;-71
2022/10/16 06:45:53;;;;;;;8.90;2.10;;;;;;;;;;4939308;28;20081;-72
2022/10/16 06:48:21;;;;;;;11.07;2.30;;;;;;;;;;4958276;28;20082;-71
2022/10/16 06:50:56;;;;;;;9.25;2.10;;;;;;;;;;4945002;28;20051;-71
2022/10/16 06:53:23;;;;;;;9.35;1.77;;;;;;;;;;4964725;28;20418;-71
2022/10/16 06:55:52;;;;;;;6.88;1.98;;;;;;;;;;4947507;28;20080;-70
2022/10/16 06:58:19;;;;;;;7.85;1.70;;;;;;;;;;4938251;29;20067;-72
2022/10/16 07:00:47;;;;;;;7.18;1.77;;;;;;;;;;4944581;28;20058;-70
2022/10/16 07:03:14;;;;;;;9.52;1.98;;;;;;;;;;4945271;28;20081;-72
2022/10/16 07:05:41;;;;;;;10.95;1.80;;;;;;;;;;4946017;28;20062;-71
2022/10/16 07:08:09;;;;;;;10.02;1.83;;;;;;;;;;4959794;28;20796;-73
2022/10/16 07:10:37;;;;;;;7.75;1.60;;;;;;;;;;4969287;28;20054;-71
2022/10/16 07:13:07;;;;;;;10.18;1.95;;;;;;;;;;4955377;28;20058;-72
2022/10/16 07:15:34;;;;;;;5.38;1.77;;;;;;;;;;4959903;28;20142;-71
2022/10/16 07:18:02;;;;;;;8.35;2.08;;;;;;;;;;4950556;28;20070;-71
2022/10/16 07:20:29;;;;;;;6.10;2.08;;;;;;;;;;4952892;28;20084;-71
2022/10/16 07:22:56;;;;;;;10.80;2.33;;;;;;;;;;4951442;28;20648;-71
2022/10/16 07:25:23;;;;;;;8.25;1.75;;;;;;;;;;4948339;28;20059;-73
2022/10/16 07:27:51;;;;;;;6.65;1.80;;;;;;;;;;4949957;28;20063;-72
2022/10/16 07:30:19;;;;;;;8.60;1.88;;;;;;;;;;4946588;28;20082;-72
2022/10/16 07:32:47;;;;;;;7.97;1.70;;;;;;;;;;4949133;28;20129;-71
2022/10/16 07:35:14;;;;;;;9.30;1.73;;;;;;;;;;4968560;28;20109;-70
2022/10/16 07:37:45;;;;;;;9.50;1.95;;;;;;;;;;4968007;28;20054;-71
2022/10/16 07:40:12;;;;;;;9.00;2.20;;;;;;;;;;4952527;28;20977;-71
2022/10/16 07:42:40;;;;;;;10.57;2.30;;;;;;;;;;4951159;28;20050;-72
2022/10/16 07:45:08;;;;;;;7.32;1.90;;;;;;;;;;4948247;28;20062;-72
2022/10/16 07:47:36;;;;;;;10.15;2.00;;;;;;;;;;4951458;28;20059;-73
2022/10/16 07:50:03;;;;;;;5.85;1.73;;;;;;;;;;4964752;28;20452;-71
2022/10/16 07:52:31;;;;;;;5.82;1.92;;;;;;;;;;4950724;28;20465;-71
2022/10/16 07:54:58;;;;;;;5.43;2.20;;;;;;;;;;4945488;28;20058;-73
2022/10/16 07:57:25;;;;;;;9.95;2.35;;;;;;;;;;4947224;28;20051;-71
2022/10/16 07:59:52;;;;;;;9.18;2.28;;;;;;;;;;4965669;28;20047;-71
2022/10/16 08:02:20;;;;;;;9.73;2.22;;;;;;;;;;4944179;28;20138;-70
2022/10/16 08:04:50;;;;;;;7.10;2.13;;;;;;;;;;4966256;28;20054;-70
2022/10/16 08:07:17;;;;;;;15.75;2.42;;;;;;;;;;4955763;28;20054;-71
2022/10/16 08:09:44;;;;;;;9.82;2.30;;;;;;;;;;4961751;28;20501;-74
2022/10/16 08:12:11;;;;;;;13.02;2.47;;;;;;;;;;4950654;28;20047;-72
2022/10/16 08:14:39;;;;;;;8.93;2.83;;;;;;;;;;4947875;28;20051;-71
2022/10/16 08:17:06;;;;;;;7.78;1.80;;;;;;;;;;4968919;28;20065;-71
2022/10/16 08:19:34;;;;;;;8.27;2.17;;;;;;;;;;4948774;28;20070;-71
2022/10/16 08:22:03;;;;;;;11.40;2.13;;;;;;;;;;4966911;28;20078;-71
2022/10/16 08:24:32;;;;;;;8.85;1.77;;;;;;;;;;4949105;28;20062;-72
2022/10/16 08:26:59;;;;;;;6.70;1.73;;;;;;;;;;4950073;28;20125;-72
2022/10/16 08:29:26;;;;;;;8.35;2.10;;;;;;;;;;4946116;28;20058;-71
2022/10/16 08:31:54;;;;;;;7.65;1.60;;;;;;;;;;4962088;28;20356;-72
2022/10/16 08:34:21;;;;;;;7.43;1.75;;;;;;;;;;4948831;28;20054;-72
2022/10/16 08:36:48;;;;;;;7.47;1.60;;;;;;;;;;4966724;28;20050;-71
2022/10/16 08:39:17;;;;;;;9.50;2.38;;;;;;;;;;4961133;28;20054;-72
2022/10/16 08:42:05;;;;;;;10.63;1.95;;;;;;;;;;4965939;28;20055;-71
2022/10/16 08:44:46;;;;;;;12.65;2.10;;;;;;;;;;4966676;28;20046;-71
2022/10/16 08:47:17;;;;;;;9.70;1.98;;;;;;;;;;4961735;28;20063;-71
2022/10/16 08:49:47;;;;;;;12.48;1.70;;;;;;;;;;4966537;28;20061;-71
2022/10/16 08:52:15;;;;;;;10.07;1.73;;;;;;;;;;4963118;28;20055;-71
2022/10/16 08:54:45;;;;;;;16.73;2.40;;;;;;;;;;4967249;28;20053;-72
2022/10/16 08:57:13;;;;;;;12.32;1.95;;;;;;;;;;4964602;28;20051;-71
2022/10/16 08:59:40;;;;;;;14.10;2.30;;;;;;;;;;4949867;28;20070;-72
2022/10/16 09:02:18;;;;;;;14.57;2.20;;;;;;;;;;4948448;28;20784;-71
2022/10/16 09:04:53;;;;;;;11.27;2.67;;;;;;;;;;4963987;28;20062;-71
2022/10/16 09:07:23;;;;;;;11.93;1.98;;;;;;;;;;4965822;28;20051;-70
2022/10/16 09:10:05;;;;;;;17.77;2.10;;;;;;;;;;4966848;28;20073;-72
2022/10/16 09:12:37;;;;;;;8.02;1.60;;;;;;;;;;4963921;28;20055;-71
2022/10/16 09:15:11;;;;;;;12.05;1.83;;;;;;;;;;4966045;28;20050;-71
2022/10/16 09:17:44;;;;;;;18.77;2.28;;;;;;;;;;4949158;28;20414;-71
2022/10/16 09:20:18;;;;;;;15.07;1.95;;;;;;;;;;4966181;28;20047;-70
2022/10/16 09:22:45;;;;;;;17.25;2.17;;;;;;;;;;4964852;28;20050;-71
2022/10/16 09:25:15;;;;;;;13.32;2.00;;;;;;;;;;4948827;28;20054;-72
2022/10/16 09:27:43;;;;;;;14.32;2.55;;;;;;;;;;4950208;28;20057;-71
2022/10/16 09:30:14;;;;;;;15.10;1.90;;;;;;;;;;4965037;28;20131;-73
2022/10/16 09:32:43;;;;;;;18.13;2.22;;;;;;;;;;4945081;28;20106;-71
2022/10/16 09:35:14;;;;;;;17.27;2.78;;;;;;;;;;4959446;28;20085;-71
2022/10/16 09:37:43;;;;;;;17.42;2.42;;;;;;;;;;4948436;28;20126;-71
2022/10/16 09:40:15;;;;;;;30.20;2.75;;;;;;;;;;4941034;28;20062;-70
2022/10/16 09:42:42;;;;;;;15.50;1.92;;;;;;;;;;4947105;28;20058;-73
2022/10/16 09:45:21;;;;;;;13.45;2.20;;;;;;;;;;4962159;28;20054;-72
2022/10/16 09:47:48;;;;;;;18.15;2.10;;;;;;;;;;4945900;28;20054;-71
2022/10/16 09:50:22;;;;;;;16.83;2.50;;;;;;;;;;4966826;28;20054;-72
2022/10/16 09:52:50;;;;;;;13.65;2.75;;;;;;;;;;4962731;28;20073;-71
2022/10/16 09:55:19;;;;;;;20.20;2.95;;;;;;;;;;4963261;28;20405;-72
2022/10/16 09:57:52;;;;;;;18.80;2.90;;;;;;;;;;4962816;28;20054;-72
2022/10/16 10:00:20;;;;;;;18.05;4.05;;;;;;;;;;4960131;28;20067;-71
2022/10/16 10:02:47;;;;;;;20.55;2.88;;;;;;;;;;4965452;28;20101;-72
2022/10/16 10:05:20;;;;;;;23.20;2.65;;;;;;;;;;4948911;28;20050;-71
2022/10/16 10:07:49;;;;;;;15.40;2.75;;;;;;;;;;4963535;28;20635;-72
2022/10/16 10:10:22;;;;;;;19.77;2.83;;;;;;;;;;4965695;28;20054;-72
2022/10/16 10:12:49;;;;;;;18.15;2.55;;;;;;;;;;4941250;28;20510;-70
2022/10/16 10:15:19;;;;;;;17.17;2.60;;;;;;;;;;4948120;28;20046;-72
2022/10/16 10:17:48;;;;;;;16.73;2.20;;;;;;;;;;4940146;28;20062;-72
2022/10/16 10:20:23;;;;;;;20.77;3.15;;;;;;;;;;4946107;28;20109;-72
2022/10/16 10:22:50;;;;;;;14.10;2.40;;;;;;;;;;4964848;28;20142;-72
2022/10/16 10:25:24;;;;;;;14.65;2.25;;;;;;;;;;4948883;28;20047;-72
2022/10/16 10:27:58;;;;;;;18.20;2.58;;;;;;;;;;4952277;28;20062;-73
2022/10/16 10:30:26;;;;;;;16.23;2.65;;;;;;;;;;4960621;28;20517;-73
2022/10/16 10:33:04;;;;;;;15.20;2.60;;;;;;;;;;4947274;28;20051;-72
2022/10/16 10:35:38;;;;;;;18.63;2.75;;;;;;;;;;4964859;28;20583;-71
2022/10/16 10:38:12;;;;;;;16.20;2.85;;;;;;;;;;4950935;28;20054;-72
2022/10/16 10:40:46;;;;;;;17.25;2.63;;;;;;;;;;4951393;28;20476;-72
2022/10/16 10:43:18;;;;;;;16.77;2.60;;;;;;;;;;4952600;28;20047;-72
2022/10/16 10:45:47;;;;;;;18.35;2.65;;;;;;;;;;4967581;28;20054;-74
2022/10/16 10:48:21;;;;;;;19.77;2.58;;;;;;;;;;4952563;28;20061;-71
2022/10/16 10:50:48;;;;;;;;;;;;;;;;;;4968957;28;20039;-72
2022/10/16 10:53:24;;;;;;;23.52;3.20;;;;;;;;;;4952303;28;19933;-72
2022/10/16 10:55:55;;;;;;;20.02;2.85;;;;;;;;;;4952345;28;20544;-72
2022/10/16 10:58:33;;;;;;;17.77;2.38;;;;;;;;;;4944446;28;20119;-72
2022/10/16 11:01:04;;;;;;;13.52;1.88;;;;;;;;;;4968547;28;20425;-72
2022/10/16 11:03:35;;;;;;;17.75;2.40;;;;;;;;;;4951782;28;20109;-72
2022/10/16 11:06:07;;;;;;;13.18;2.45;;;;;;;;;;4968405;28;20050;-73
2022/10/16 11:08:36;;;;;;;18.10;2.08;;;;;;;;;;4951002;28;20055;-73
2022/10/16 11:11:07;;;;;;;20.80;2.42;;;;;;;;;;4952035;28;20063;-73
2022/10/16 11:13:38;;;;;;;18.42;2.53;;;;;;;;;;4948955;28;20050;-72
2022/10/16 11:16:13;;;;;;;19.55;2.17;;;;;;;;;;4945089;28;20080;-73
2022/10/16 11:18:44;;;;;;;15.90;2.80;;;;;;;;;;4943884;28;20047;-72
2022/10/16 11:21:13;;;;;;;20.58;3.17;;;;;;;;;;4948180;28;20058;-72
2022/10/16 11:23:43;;;;;;;23.48;2.53;;;;;;;;;;4950925;28;20505;-72
2022/10/16 11:26:15;;;;;;;18.27;2.72;;;;;;;;;;4958967;28;20054;-73
2022/10/16 11:28:45;;;;;;;17.33;2.58;;;;;;;;;;4960180;28;20052;-72
2022/10/16 11:31:15;;;;;;;17.65;2.28;;;;;;;;;;4946848;28;20414;-72
2022/10/16 11:33:44;;;;;;;17.77;2.85;;;;;;;;;;4950189;28;20872;-74
2022/10/16 11:36:14;;;;;;;16.27;2.17;;;;;;;;;;4951352;28;20054;-71
2022/10/16 11:38:44;;;;;;;16.65;2.60;;;;;;;;;;4949265;28;20078;-73
2022/10/16 11:41:17;;;;;;;15.50;2.38;;;;;;;;;;4948686;28;20061;-73
2022/10/16 11:43:46;;;;;;;14.82;2.20;;;;;;;;;;4946888;28;21335;-72
2022/10/16 11:46:16;;;;;;;13.60;2.15;;;;;;;;;;4951594;28;20417;-72
2022/10/16 11:48:47;;;;;;;15.40;2.25;;;;;;;;;;4953007;28;20058;-73
2022/10/16 11:51:17;;;;;;;16.15;2.20;;;;;;;;;;4954707;28;20047;-73
2022/10/16 11:53:47;;;;;;;11.63;1.98;;;;;;;;;;4948863;28;20059;-74
2022/10/16 11:56:18;;;;;;;16.33;2.22;;;;;;;;;;4941995;28;20399;-72
2022/10/16 11:58:50;;;;;;;17.13;2.60;;;;;;;;;;4966387;28;20494;-72
2022/10/16 12:01:20;;;;;;;12.82;2.17;;;;;;;;;;4968891;28;20050;-72
2022/10/16 12:03:50;;;;;;;14.35;2.33;;;;;;;;;;4951617;28;20058;-73
2022/10/16 12:06:31;;;;;;;17.70;2.50;;;;;;;;;;4964821;28;20061;-73
2022/10/16 12:08:59;;;;;;;10.20;1.90;;;;;;;;;;4948281;28;20093;-73
2022/10/16 12:11:35;;;;;;;19.92;3.17;;;;;;;;;;4968199;28;20059;-73
2022/10/16 12:14:07;;;;;;;23.75;3.97;;;;;;;;;;4948232;28;20134;-73
2022/10/16 12:16:34;;;;;;;15.90;2.38;;;;;;;;;;4966205;28;20063;-73
2022/10/16 12:19:11;;;;;;;12.27;2.40;;;;;;;;;;4943991;28;20498;-73
2022/10/16 12:21:39;;;;;;;17.15;2.47;;;;;;;;;;4950096;28;20570;-73
2022/10/16 12:24:07;;;;;;;14.55;1.70;;;;;;;;;;4947357;28;20053;-73
2022/10/16 12:26:38;;;;;;;14.85;2.53;;;;;;;;;;4949891;28;20047;-73
2022/10/16 12:29:15;;;;;;;14.23;2.20;;;;;;;;;;4950262;28;20799;-73
2022/10/16 12:31:46;;;;;;;15.18;2.50;;;;;;;;;;4949209;28;20050;-73
2022/10/16 12:34:19;;;;;;;19.58;2.20;;;;;;;;;;4945779;28;20058;-72
2022/10/16 12:36:47;;;;;;;17.80;2.58;;;;;;;;;;4971489;28;20069;-72
2022/10/16 12:39:21;;;;;;;14.52;2.42;;;;;;;;;;4949499;28;20062;-72
2022/10/16 12:42:01;;;;;;;14.10;1.83;;;;;;;;;;4938126;28;20047;-72
2022/10/16 12:44:33;;;;;;;16.13;2.75;;;;;;;;;;4948148;28;20105;-73
2022/10/16 12:47:00;;;;;;;10.77;1.70;;;;;;;;;;4956374;28;20414;-73
2022/10/16 12:49:32;;;;;;;13.13;2.22;;;;;;;;;;4951140;28;20063;-73
2022/10/16 12:52:00;;;;;;;10.73;2.08;;;;;;;;;;4958116;28;20054;-73
2022/10/16 12:54:30;;;;;;;22.75;2.42;;;;;;;;;;4948734;28;20054;-73
2022/10/16 12:57:05;;;;;;;17.67;2.10;;;;;;;;;;4942411;28;20055;-72
2022/10/16 12:59:39;;;;;;;15.52;2.47;;;;;;;;;;4940976;28;20047;-73
2022/10/16 13:02:21;;;;;;;15.43;2.13;;;;;;;;;;4948945;28;20702;-72
2022/10/16 13:04:54;;;;;;;21.23;2.83;;;;;;;;;;4945409;28;20150;-74
2022/10/16 13:07:34;;;;;;;14.88;2.95;;;;;;;;;;4941204;28;20059;-72
2022/10/16 13:10:07;;;;;;;14.02;3.03;;;;;;;;;;4949150;28;20047;-73
2022/10/16 13:12:50;;;;;;;10.85;1.85;;;;;;;;;;4965654;28;20059;-72
2022/10/16 13:15:35;;;;;;;19.48;2.60;;;;;;;;;;4950069;28;20051;-71
2022/10/16 13:18:06;;;;;;;13.18;2.22;;;;;;;;;;4941455;28;20062;-72
2022/10/16 13:20:36;;;;;;;11.30;1.77;;;;;;;;;;4967130;28;20090;-72
2022/10/16 13:23:10;;;;;;;16.92;2.50;;;;;;;;;;4949164;28;20066;-72
2022/10/16 13:25:42;;;;;;;12.98;2.30;;;;;;;;;;4950081;28;20062;-73
2022/10/16 13:28:12;;;;;;;14.48;2.67;;;;;;;;;;4947853;28;20062;-73
2022/10/16 13:30:41;;;;;;;17.15;2.58;;;;;;;;;;4949306;28;20051;-73
2022/10/16 13:33:14;;;;;;;13.60;2.72;;;;;;;;;;4966072;28;20479;-72
2022/10/16 13:35:48;;;;;;;14.15;2.42;;;;;;;;;;4946753;28;20123;-73
2022/10/16 13:38:17;;;;;;;16.02;2.20;;;;;;;;;;4949184;28;20047;-72
2022/10/16 13:40:51;;;;;;;11.40;2.10;;;;;;;;;;4947201;28;20055;-73
2022/10/16 13:43:21;;;;;;;10.55;2.50;;;;;;;;;;4966498;28;20057;-74
2022/10/16 13:45:55;;;;;;;13.75;2.15;;;;;;;;;;4942172;28;20058;-73
2022/10/16 13:48:23;;;;;;;13.95;2.45;;;;;;;;;;4965166;28;20050;-73
2022/10/16 13:51:00;;;;;;;14.23;2.30;;;;;;;;;;4946797;28;20057;-73
2022/10/16 13:53:27;;;;;;;14.13;2.42;;;;;;;;;;4947302;28;20422;-72
2022/10/16 13:55:54;;;;;;;10.95;2.20;;;;;;;;;;4954369;28;20440;-73
2022/10/16 13:58:23;;;;;;;11.50;2.05;;;;;;;;;;4946512;28;20063;-73
2022/10/16 14:00:58;;;;;;;10.65;2.20;;;;;;;;;;4947399;28;20047;-73
2022/10/16 14:03:26;;;;;;;12.82;1.92;;;;;;;;;;4946276;28;20054;-73
2022/10/16 14:05:54;;;;;;;14.95;2.47;;;;;;;;;;4945328;28;20047;-72
2022/10/16 14:08:21;;;;;;;16.05;2.35;;;;;;;;;;4938454;28;20066;-73
2022/10/16 14:10:53;;;;;;;12.07;1.90;;;;;;;;;;4944970;28;20549;-72
2022/10/16 14:13:21;;;;;;;15.52;2.42;;;;;;;;;;4945805;28;20097;-73
2022/10/16 14:15:51;;;;;;;12.43;2.72;;;;;;;;;;4947919;28;20525;-73
2022/10/16 14:18:20;;;;;;;12.40;2.60;;;;;;;;;;4943326;28;20059;-73
2022/10/16 14:20:48;;;;;;;12.23;2.17;;;;;;;;;;4964752;28;20497;-73
2022/10/16 14:23:22;;;;;;;14.10;2.28;;;;;;;;;;4945992;28;20105;-72
2022/10/16 14:25:50;;;;;;;16.58;2.25;;;;;;;;;;4947504;28;20047;-73
2022/10/16 14:28:18;;;;;;;16.65;2.60;;;;;;;;;;4965414;28;20050;-73
2022/10/16 14:30:54;;;;;;;12.48;2.40;;;;;;;;;;4953391;28;20066;-73
2022/10/16 14:33:25;;;;;;;13.70;1.90;;;;;;;;;;4944163;28;20193;-73
2022/10/16 14:36:04;;;;;;;13.38;1.70;;;;;;;;;;4942125;28;20103;-73
2022/10/16 14:38:32;;;;;;;15.63;2.83;;;;;;;;;;4963544;28;20057;-73
2022/10/16 14:40:59;;;;;;;9.30;1.77;;;;;;;;;;4943542;28;20453;-73
2022/10/16 14:43:29;;;;;;;19.73;2.83;;;;;;;;;;4963011;28;20109;-72
2022/10/16 14:45:58;;;;;;;16.65;1.80;;;;;;;;;;4945476;28;20066;-72
2022/10/16 14:48:26;;;;;;;21.65;2.50;;;;;;;;;;4941931;28;20069;-73